EST,Max TemperatureF,Mean TemperatureF,Min TemperatureF,Max Dew PointF,MeanDew PointF,Min DewpointF,Max Humidity, Mean Humidity, Min Humidity, Max Sea Level PressureIn, Mean Sea Level PressureIn, Min Sea Level PressureIn, Max VisibilityMiles, Mean VisibilityMiles, Min VisibilityMiles, Max Wind SpeedMPH, Mean Wind SpeedMPH, Max Gust SpeedMPH,PrecipitationIn, CloudCover, Events, WindDirDegrees
2013-1-1,58,50,43,49,43,37,81,77,66,30.13,30.03,29.94,10,9,3,13,3,17,0.01,6,Rain,224
2013-1-2,48,44,40,42,38,35,82,81,80,30.21,30.07,29.94,10,8,2,14,4,18,0.36,7,Rain,29
2013-1-3,42,37,32,35,32,28,84,77,64,30.26,30.21,30.16,10,10,5,7,3,,0.00,4,Rain,38
2013-1-4,52,40,27,32,25,16,83,59,26,30.31,30.25,30.19,10,9,2,12,3,16,0.00,1,,267
2013-1-5,52,40,28,32,23,12,81,54,20,30.40,30.32,30.26,10,10,10,7,2,,0.00,0,,130
2013-1-6,47,44,40,40,37,32,81,76,66,30.29,30.17,30.08,10,9,4,10,2,,0.02,6,Rain,217
2013-1-7,52,42,32,37,32,27,83,69,37,30.47,30.35,30.16,10,10,1,16,3,22,0.00,0,,24
2013-1-8,64,48,32,49,37,28,84,76,50,30.46,30.41,30.37,10,10,1,8,1,,0.00,1,,74
2013-1-9,73,55,37,53,44,33,82,73,39,30.44,30.39,30.36,10,9,1,7,1,,0.00,0,,231
2013-1-10,63,52,42,48,37,25,82,60,26,30.54,30.48,30.40,10,9,4,12,3,16,0.00,0,,70
2013-1-11,68,54,40,57,48,34,81,78,67,30.47,30.29,30.15,10,5,0,13,4,,0.04,6,Rain,108
2013-1-12,64,61,58,58,55,52,81,81,80,30.19,30.15,30.13,10,4,0,8,3,,0.00,8,,261
2013-1-13,73,64,55,64,55,50,81,79,68,30.18,30.13,30.10,10,6,0,7,4,,0.00,4,,158
2013-1-14,78,65,52,64,57,47,82,73,49,30.18,30.14,30.11,10,9,0,10,5,,0.00,0,,197
2013-1-15,63,54,46,57,47,42,82,81,80,30.23,30.18,30.09,10,6,1,14,5,17,0.00,7,,53
2013-1-16,63,56,50,56,50,45,82,81,80,30.09,30.02,29.98,10,5,0,12,2,,0.02,7,Rain,251
2013-1-17,52,46,40,48,44,35,82,82,81,30.03,29.98,29.90,10,3,0,22,6,30,0.44,7,,39
2013-1-18,47,38,30,35,29,19,83,70,32,30.56,30.38,29.98,10,10,10,15,8,20,0.02,3,Rain,351
2013-1-19,59,42,26,41,30,21,83,65,29,30.52,30.37,30.19,10,10,10,12,1,,0.00,0,,202
2013-1-20,64,52,40,43,34,20,81,59,18,30.17,30.07,29.97,10,10,10,16,6,23,0.00,0,,230
2013-1-21,63,46,30,39,32,24,83,58,23,30.09,29.99,29.86,10,10,10,12,2,18,0.00,0,,218
2013-1-22,47,36,24,26,-2,-44,55,24,4,30.30,30.15,29.94,10,10,10,16,7,23,0.00,0,,321
2013-1-23,37,29,21,17,-1,-32,71,34,5,30.40,30.29,30.12,10,10,10,12,3,16,0.00,0,,272
2013-1-24,37,29,21,30,9,-15,75,43,12,30.54,30.26,29.97,10,10,10,28,8,36,0.00,1,,332
2013-1-25,32,26,19,28,16,5,83,66,41,30.53,30.35,30.13,10,8,2,7,2,,0.08,3,Snow,334
2013-1-26,32,30,27,28,26,23,83,82,81,30.42,30.24,30.12,7,4,1,7,3,,0.13,8,,338
2013-1-27,40,32,25,30,25,20,83,77,58,30.61,30.53,30.42,10,7,0,8,3,,0.06,3,,24
2013-1-28,52,39,26,45,34,21,83,77,66,30.53,30.40,30.24,10,10,3,9,1,,0.00,6,Rain,189
2013-1-29,73,61,49,58,52,44,81,73,54,30.23,30.17,30.11,10,8,2,13,7,17,0.00,0,,226
2013-1-30,78,69,60,65,60,54,81,75,60,30.13,29.90,29.56,10,10,7,24,9,44,0.00,3,,186
2013-1-31,73,56,37,66,26,-7,81,44,8,30.05,29.79,29.47,10,10,5,26,17,38,0.00,2,Rain,251